Shangzhi, China
Current Conditions -  °F | °C
As of 12:00 PM on Wednesday 26 Nov 2014 (Local Time) from ZYHB Reporting Station
Clear Clear  
Wind Chill: 35°   Ceiling: Unl
Heat Index: 45°   Visibility: 4mi
Dew Point: 27°   Wind: 27mph
Humidity: 49%   Direction: 190°S
Pressure: 29.68"   Gusts: 38mph
Location:  45.22°N, 127.97°E
Report Text: ZYHB 260400Z 19012G17MPS 7000 NSC 07/M03 Q1005 NOSIG
Loading
Personal Weather Stations






























Interactive Weather Map New forecast layout! Learn more

10-Day Weather Forecast

Advertisements
Track Severe Weather on mobile